sensor_id;sensor_type;location;lat;lon;timestamp;P1;durP1;ratioP1;P2;durP2;ratioP2
8480;SDS011;4277;51.354;6.740;2023-07-08T00:00:23;3.80;;;2.40;;
8480;SDS011;4277;51.354;6.740;2023-07-08T00:02:49;6.03;;;2.45;;
8480;SDS011;4277;51.354;6.740;2023-07-08T00:05:16;4.68;;;2.50;;
8480;SDS011;4277;51.354;6.740;2023-07-08T00:07:43;3.10;;;2.17;;
8480;SDS011;4277;51.354;6.740;2023-07-08T00:10:22;6.38;;;2.50;;
8480;SDS011;4277;51.354;6.740;2023-07-08T00:12:49;4.18;;;2.47;;
8480;SDS011;4277;51.354;6.740;2023-07-08T00:15:16;2.22;;;2.05;;
8480;SDS011;4277;51.354;6.740;2023-07-08T00:17:42;2.95;;;2.40;;
8480;SDS011;4277;51.354;6.740;2023-07-08T00:22:38;2.55;;;2.22;;
8480;SDS011;4277;51.354;6.740;2023-07-08T00:25:06;3.67;;;2.20;;
8480;SDS011;4277;51.354;6.740;2023-07-08T00:27:32;5.80;;;2.53;;
8480;SDS011;4277;51.354;6.740;2023-07-08T00:29:58;3.65;;;2.50;;
8480;SDS011;4277;51.354;6.740;2023-07-08T00:32:25;4.13;;;2.50;;
8480;SDS011;4277;51.354;6.740;2023-07-08T00:34:51;3.15;;;2.38;;
8480;SDS011;4277;51.354;6.740;2023-07-08T00:37:17;2.65;;;2.45;;
8480;SDS011;4277;51.354;6.740;2023-07-08T00:39:43;4.85;;;2.60;;
8480;SDS011;4277;51.354;6.740;2023-07-08T00:42:11;3.40;;;2.58;;
8480;SDS011;4277;51.354;6.740;2023-07-08T00:44:39;4.60;;;2.40;;
8480;SDS011;4277;51.354;6.740;2023-07-08T00:47:07;3.58;;;2.30;;
8480;SDS011;4277;51.354;6.740;2023-07-08T00:49:46;3.00;;;2.58;;
8480;SDS011;4277;51.354;6.740;2023-07-08T00:52:17;2.65;;;2.33;;
8480;SDS011;4277;51.354;6.740;2023-07-08T00:54:44;6.15;;;2.47;;
8480;SDS011;4277;51.354;6.740;2023-07-08T00:57:10;2.35;;;2.15;;
8480;SDS011;4277;51.354;6.740;2023-07-08T00:59:44;3.40;;;2.70;;
8480;SDS011;4277;51.354;6.740;2023-07-08T01:02:12;2.92;;;2.28;;
8480;SDS011;4277;51.354;6.740;2023-07-08T01:04:49;2.42;;;2.22;;
8480;SDS011;4277;51.354;6.740;2023-07-08T01:07:17;3.15;;;2.63;;
8480;SDS011;4277;51.354;6.740;2023-07-08T01:09:46;4.47;;;2.50;;
8480;SDS011;4277;51.354;6.740;2023-07-08T01:12:19;4.80;;;2.40;;
8480;SDS011;4277;51.354;6.740;2023-07-08T01:14:45;3.22;;;2.60;;
8480;SDS011;4277;51.354;6.740;2023-07-08T01:17:13;3.13;;;2.28;;
8480;SDS011;4277;51.354;6.740;2023-07-08T01:19:42;3.00;;;2.50;;
8480;SDS011;4277;51.354;6.740;2023-07-08T01:22:08;2.70;;;2.22;;
8480;SDS011;4277;51.354;6.740;2023-07-08T01:24:35;3.20;;;2.30;;
8480;SDS011;4277;51.354;6.740;2023-07-08T01:27:04;4.57;;;2.70;;
8480;SDS011;4277;51.354;6.740;2023-07-08T01:29:30;4.85;;;2.67;;
8480;SDS011;4277;51.354;6.740;2023-07-08T01:31:57;4.50;;;2.63;;
8480;SDS011;4277;51.354;6.740;2023-07-08T01:34:23;5.10;;;3.00;;
8480;SDS011;4277;51.354;6.740;2023-07-08T01:36:51;3.58;;;2.60;;
8480;SDS011;4277;51.354;6.740;2023-07-08T01:39:18;2.75;;;2.55;;
8480;SDS011;4277;51.354;6.740;2023-07-08T01:41:45;3.65;;;2.60;;
8480;SDS011;4277;51.354;6.740;2023-07-08T01:44:46;2.95;;;2.65;;
8480;SDS011;4277;51.354;6.740;2023-07-08T01:47:05;5.43;;;2.53;;
8480;SDS011;4277;51.354;6.740;2023-07-08T01:49:32;3.30;;;2.75;;
8480;SDS011;4277;51.354;6.740;2023-07-08T01:51:59;6.32;;;2.58;;
8480;SDS011;4277;51.354;6.740;2023-07-08T01:54:25;3.10;;;2.50;;
8480;SDS011;4277;51.354;6.740;2023-07-08T01:56:55;3.42;;;2.90;;
8480;SDS011;4277;51.354;6.740;2023-07-08T01:59:21;3.15;;;2.40;;
8480;SDS011;4277;51.354;6.740;2023-07-08T02:01:47;4.57;;;2.65;;
8480;SDS011;4277;51.354;6.740;2023-07-08T02:04:15;3.65;;;2.72;;
8480;SDS011;4277;51.354;6.740;2023-07-08T02:06:41;3.47;;;2.88;;
8480;SDS011;4277;51.354;6.740;2023-07-08T02:09:07;3.20;;;2.33;;
8480;SDS011;4277;51.354;6.740;2023-07-08T02:11:33;4.20;;;2.67;;
8480;SDS011;4277;51.354;6.740;2023-07-08T02:13:59;3.00;;;2.40;;
8480;SDS011;4277;51.354;6.740;2023-07-08T02:16:25;2.95;;;2.30;;
8480;SDS011;4277;51.354;6.740;2023-07-08T02:18:51;2.92;;;2.53;;
8480;SDS011;4277;51.354;6.740;2023-07-08T02:21:17;4.65;;;2.50;;
8480;SDS011;4277;51.354;6.740;2023-07-08T02:23:45;3.70;;;2.88;;
8480;SDS011;4277;51.354;6.740;2023-07-08T02:26:11;2.88;;;2.65;;
8480;SDS011;4277;51.354;6.740;2023-07-08T02:28:37;5.07;;;2.75;;
8480;SDS011;4277;51.354;6.740;2023-07-08T02:31:03;7.47;;;2.70;;
8480;SDS011;4277;51.354;6.740;2023-07-08T02:33:29;3.58;;;2.40;;
8480;SDS011;4277;51.354;6.740;2023-07-08T02:35:57;4.78;;;2.67;;
8480;SDS011;4277;51.354;6.740;2023-07-08T02:38:23;3.80;;;2.70;;
8480;SDS011;4277;51.354;6.740;2023-07-08T02:40:49;3.15;;;2.70;;
8480;SDS011;4277;51.354;6.740;2023-07-08T02:43:15;3.50;;;2.67;;
8480;SDS011;4277;51.354;6.740;2023-07-08T02:45:41;4.18;;;2.72;;
8480;SDS011;4277;51.354;6.740;2023-07-08T02:48:07;4.57;;;3.22;;
8480;SDS011;4277;51.354;6.740;2023-07-08T02:50:33;3.33;;;2.80;;
8480;SDS011;4277;51.354;6.740;2023-07-08T02:52:59;4.07;;;2.90;;
8480;SDS011;4277;51.354;6.740;2023-07-08T02:55:25;4.10;;;3.00;;
8480;SDS011;4277;51.354;6.740;2023-07-08T02:57:51;2.60;;;2.20;;
8480;SDS011;4277;51.354;6.740;2023-07-08T03:00:17;3.08;;;2.60;;
8480;SDS011;4277;51.354;6.740;2023-07-08T03:02:43;3.45;;;2.88;;
8480;SDS011;4277;51.354;6.740;2023-07-08T03:05:09;3.83;;;2.70;;
8480;SDS011;4277;51.354;6.740;2023-07-08T03:07:35;3.92;;;2.92;;
8480;SDS011;4277;51.354;6.740;2023-07-08T03:10:01;4.05;;;2.60;;
8480;SDS011;4277;51.354;6.740;2023-07-08T03:12:27;4.22;;;2.60;;
8480;SDS011;4277;51.354;6.740;2023-07-08T03:14:53;3.65;;;2.78;;
8480;SDS011;4277;51.354;6.740;2023-07-08T03:17:19;4.50;;;2.47;;
8480;SDS011;4277;51.354;6.740;2023-07-08T03:19:44;6.38;;;2.80;;
8480;SDS011;4277;51.354;6.740;2023-07-08T03:22:10;4.88;;;2.80;;
8480;SDS011;4277;51.354;6.740;2023-07-08T03:24:36;3.20;;;2.90;;
8480;SDS011;4277;51.354;6.740;2023-07-08T03:27:11;3.58;;;2.67;;
8480;SDS011;4277;51.354;6.740;2023-07-08T03:29:37;3.30;;;3.00;;
8480;SDS011;4277;51.354;6.740;2023-07-08T03:32:03;4.32;;;2.70;;
8480;SDS011;4277;51.354;6.740;2023-07-08T03:34:29;2.70;;;2.50;;
8480;SDS011;4277;51.354;6.740;2023-07-08T03:36:55;4.28;;;3.00;;
8480;SDS011;4277;51.354;6.740;2023-07-08T03:39:22;4.30;;;2.72;;
8480;SDS011;4277;51.354;6.740;2023-07-08T03:41:48;3.22;;;2.70;;
8480;SDS011;4277;51.354;6.740;2023-07-08T03:44:15;2.80;;;2.50;;
8480;SDS011;4277;51.354;6.740;2023-07-08T03:46:41;3.13;;;2.83;;
8480;SDS011;4277;51.354;6.740;2023-07-08T03:49:08;5.03;;;2.60;;
8480;SDS011;4277;51.354;6.740;2023-07-08T03:51:35;4.40;;;2.95;;
8480;SDS011;4277;51.354;6.740;2023-07-08T03:54:02;3.00;;;2.75;;
8480;SDS011;4277;51.354;6.740;2023-07-08T03:56:27;2.88;;;2.67;;
8480;SDS011;4277;51.354;6.740;2023-07-08T03:58:54;2.75;;;2.55;;
8480;SDS011;4277;51.354;6.740;2023-07-08T04:01:21;2.88;;;2.53;;
8480;SDS011;4277;51.354;6.740;2023-07-08T04:03:49;4.18;;;2.70;;
8480;SDS011;4277;51.354;6.740;2023-07-08T04:06:15;4.82;;;2.50;;
8480;SDS011;4277;51.354;6.740;2023-07-08T04:08:41;3.70;;;2.88;;
8480;SDS011;4277;51.354;6.740;2023-07-08T04:11:17;4.05;;;2.97;;
8480;SDS011;4277;51.354;6.740;2023-07-08T04:13:44;5.72;;;3.20;;
8480;SDS011;4277;51.354;6.740;2023-07-08T04:16:37;4.90;;;3.00;;
8480;SDS011;4277;51.354;6.740;2023-07-08T04:18:56;3.20;;;2.80;;
8480;SDS011;4277;51.354;6.740;2023-07-08T04:21:23;3.72;;;3.00;;
8480;SDS011;4277;51.354;6.740;2023-07-08T04:23:50;3.70;;;2.75;;
8480;SDS011;4277;51.354;6.740;2023-07-08T04:26:16;5.18;;;2.80;;
8480;SDS011;4277;51.354;6.740;2023-07-08T04:28:43;3.15;;;2.70;;
8480;SDS011;4277;51.354;6.740;2023-07-08T04:31:09;3.67;;;2.70;;
8480;SDS011;4277;51.354;6.740;2023-07-08T04:33:35;3.42;;;2.70;;
8480;SDS011;4277;51.354;6.740;2023-07-08T04:36:01;3.42;;;3.13;;
8480;SDS011;4277;51.354;6.740;2023-07-08T04:38:28;4.18;;;2.80;;
8480;SDS011;4277;51.354;6.740;2023-07-08T04:40:53;4.00;;;2.88;;
8480;SDS011;4277;51.354;6.740;2023-07-08T04:43:20;3.28;;;2.97;;
8480;SDS011;4277;51.354;6.740;2023-07-08T04:45:47;3.88;;;3.00;;
8480;SDS011;4277;51.354;6.740;2023-07-08T04:48:15;3.20;;;2.92;;
8480;SDS011;4277;51.354;6.740;2023-07-08T04:50:42;2.90;;;2.63;;
8480;SDS011;4277;51.354;6.740;2023-07-08T04:53:08;6.30;;;2.75;;
8480;SDS011;4277;51.354;6.740;2023-07-08T04:55:35;6.55;;;3.30;;
8480;SDS011;4277;51.354;6.740;2023-07-08T04:58:02;4.15;;;2.88;;
8480;SDS011;4277;51.354;6.740;2023-07-08T05:00:28;4.50;;;2.95;;
8480;SDS011;4277;51.354;6.740;2023-07-08T05:02:54;4.75;;;3.00;;
8480;SDS011;4277;51.354;6.740;2023-07-08T05:05:20;5.13;;;2.95;;
8480;SDS011;4277;51.354;6.740;2023-07-08T05:07:46;3.53;;;3.17;;
8480;SDS011;4277;51.354;6.740;2023-07-08T05:10:14;3.63;;;3.00;;
8480;SDS011;4277;51.354;6.740;2023-07-08T05:12:41;4.00;;;3.25;;
8480;SDS011;4277;51.354;6.740;2023-07-08T05:15:07;4.03;;;2.95;;
8480;SDS011;4277;51.354;6.740;2023-07-08T05:17:33;3.70;;;3.17;;
8480;SDS011;4277;51.354;6.740;2023-07-08T05:19:59;3.20;;;2.90;;
8480;SDS011;4277;51.354;6.740;2023-07-08T05:22:26;3.35;;;2.92;;
8480;SDS011;4277;51.354;6.740;2023-07-08T05:24:52;3.38;;;2.88;;
8480;SDS011;4277;51.354;6.740;2023-07-08T05:27:20;4.20;;;3.10;;
8480;SDS011;4277;51.354;6.740;2023-07-08T05:29:47;3.65;;;2.80;;
8480;SDS011;4277;51.354;6.740;2023-07-08T05:32:13;4.32;;;3.05;;
8480;SDS011;4277;51.354;6.740;2023-07-08T05:34:39;3.63;;;3.13;;
8480;SDS011;4277;51.354;6.740;2023-07-08T05:37:05;3.55;;;3.05;;
8480;SDS011;4277;51.354;6.740;2023-07-08T05:39:31;4.72;;;3.40;;
8480;SDS011;4277;51.354;6.740;2023-07-08T05:41:57;3.60;;;2.90;;
8480;SDS011;4277;51.354;6.740;2023-07-08T05:44:23;4.00;;;3.22;;
8480;SDS011;4277;51.354;6.740;2023-07-08T05:46:49;4.03;;;3.10;;
8480;SDS011;4277;51.354;6.740;2023-07-08T05:49:16;5.25;;;3.28;;
8480;SDS011;4277;51.354;6.740;2023-07-08T05:51:43;3.78;;;3.15;;
8480;SDS011;4277;51.354;6.740;2023-07-08T05:54:09;3.63;;;3.28;;
8480;SDS011;4277;51.354;6.740;2023-07-08T05:56:35;3.55;;;3.20;;
8480;SDS011;4277;51.354;6.740;2023-07-08T05:59:01;3.58;;;3.20;;
8480;SDS011;4277;51.354;6.740;2023-07-08T06:01:27;4.15;;;3.00;;
8480;SDS011;4277;51.354;6.740;2023-07-08T06:03:53;3.72;;;3.30;;
8480;SDS011;4277;51.354;6.740;2023-07-08T06:06:23;3.20;;;2.88;;
8480;SDS011;4277;51.354;6.740;2023-07-08T06:08:49;3.38;;;3.08;;
8480;SDS011;4277;51.354;6.740;2023-07-08T06:11:15;6.63;;;3.50;;
8480;SDS011;4277;51.354;6.740;2023-07-08T06:13:40;5.13;;;3.30;;
8480;SDS011;4277;51.354;6.740;2023-07-08T06:16:06;4.28;;;3.50;;
8480;SDS011;4277;51.354;6.740;2023-07-08T06:18:32;3.20;;;2.90;;
8480;SDS011;4277;51.354;6.740;2023-07-08T06:24:02;5.05;;;3.42;;
8480;SDS011;4277;51.354;6.740;2023-07-08T06:26:28;5.10;;;3.53;;
8480;SDS011;4277;51.354;6.740;2023-07-08T06:28:54;4.22;;;3.40;;
8480;SDS011;4277;51.354;6.740;2023-07-08T06:31:20;5.93;;;3.42;;
8480;SDS011;4277;51.354;6.740;2023-07-08T06:33:46;4.88;;;3.65;;
8480;SDS011;4277;51.354;6.740;2023-07-08T06:36:12;3.63;;;3.33;;
8480;SDS011;4277;51.354;6.740;2023-07-08T06:38:38;4.97;;;3.63;;
8480;SDS011;4277;51.354;6.740;2023-07-08T06:41:04;4.57;;;3.20;;
8480;SDS011;4277;51.354;6.740;2023-07-08T06:43:30;4.18;;;3.60;;
8480;SDS011;4277;51.354;6.740;2023-07-08T06:45:56;4.82;;;3.53;;
8480;SDS011;4277;51.354;6.740;2023-07-08T06:48:22;3.97;;;3.30;;
8480;SDS011;4277;51.354;6.740;2023-07-08T06:50:49;6.43;;;3.85;;
8480;SDS011;4277;51.354;6.740;2023-07-08T06:53:15;6.18;;;3.55;;
8480;SDS011;4277;51.354;6.740;2023-07-08T06:55:43;6.93;;;3.88;;
8480;SDS011;4277;51.354;6.740;2023-07-08T06:58:09;6.05;;;3.90;;
8480;SDS011;4277;51.354;6.740;2023-07-08T07:00:35;3.83;;;3.50;;
8480;SDS011;4277;51.354;6.740;2023-07-08T07:03:01;5.95;;;3.80;;
8480;SDS011;4277;51.354;6.740;2023-07-08T07:05:27;5.85;;;3.50;;
8480;SDS011;4277;51.354;6.740;2023-07-08T07:07:53;5.80;;;3.90;;
8480;SDS011;4277;51.354;6.740;2023-07-08T07:10:19;5.90;;;3.78;;
8480;SDS011;4277;51.354;6.740;2023-07-08T07:12:45;6.40;;;4.10;;
8480;SDS011;4277;51.354;6.740;2023-07-08T07:15:11;8.18;;;4.53;;
8480;SDS011;4277;51.354;6.740;2023-07-08T07:17:37;6.20;;;4.18;;
8480;SDS011;4277;51.354;6.740;2023-07-08T07:20:03;6.95;;;3.92;;
8480;SDS011;4277;51.354;6.740;2023-07-08T07:22:30;6.32;;;4.40;;
8480;SDS011;4277;51.354;6.740;2023-07-08T07:24:56;4.22;;;3.67;;
8480;SDS011;4277;51.354;6.740;2023-07-08T07:27:22;7.88;;;4.18;;
8480;SDS011;4277;51.354;6.740;2023-07-08T07:29:49;6.03;;;4.45;;
8480;SDS011;4277;51.354;6.740;2023-07-08T07:32:15;5.88;;;4.40;;
8480;SDS011;4277;51.354;6.740;2023-07-08T07:34:42;5.78;;;4.75;;
8480;SDS011;4277;51.354;6.740;2023-07-08T07:37:10;6.45;;;4.65;;
8480;SDS011;4277;51.354;6.740;2023-07-08T07:39:37;7.13;;;4.93;;
8480;SDS011;4277;51.354;6.740;2023-07-08T07:42:03;5.78;;;4.70;;
8480;SDS011;4277;51.354;6.740;2023-07-08T07:44:29;5.68;;;4.57;;
8480;SDS011;4277;51.354;6.740;2023-07-08T07:46:55;5.07;;;4.07;;
8480;SDS011;4277;51.354;6.740;2023-07-08T07:49:21;5.65;;;5.00;;
8480;SDS011;4277;51.354;6.740;2023-07-08T07:51:47;6.03;;;4.90;;
8480;SDS011;4277;51.354;6.740;2023-07-08T07:54:13;6.03;;;4.90;;
8480;SDS011;4277;51.354;6.740;2023-07-08T07:56:39;6.57;;;4.75;;
8480;SDS011;4277;51.354;6.740;2023-07-08T07:59:05;6.32;;;5.22;;
8480;SDS011;4277;51.354;6.740;2023-07-08T08:01:31;5.72;;;5.03;;
8480;SDS011;4277;51.354;6.740;2023-07-08T08:03:57;5.95;;;4.90;;
8480;SDS011;4277;51.354;6.740;2023-07-08T08:06:23;8.07;;;5.25;;
8480;SDS011;4277;51.354;6.740;2023-07-08T08:08:50;5.28;;;4.78;;
8480;SDS011;4277;51.354;6.740;2023-07-08T08:11:16;7.10;;;5.15;;
8480;SDS011;4277;51.354;6.740;2023-07-08T08:13:42;7.07;;;5.50;;
8480;SDS011;4277;51.354;6.740;2023-07-08T08:16:08;6.35;;;5.20;;
8480;SDS011;4277;51.354;6.740;2023-07-08T08:18:34;6.05;;;5.03;;
8480;SDS011;4277;51.354;6.740;2023-07-08T08:21:00;5.45;;;4.95;;
8480;SDS011;4277;51.354;6.740;2023-07-08T08:23:26;7.43;;;5.28;;
8480;SDS011;4277;51.354;6.740;2023-07-08T08:25:52;6.80;;;5.18;;
8480;SDS011;4277;51.354;6.740;2023-07-08T08:28:18;8.73;;;5.25;;
8480;SDS011;4277;51.354;6.740;2023-07-08T08:30:48;5.70;;;5.10;;
8480;SDS011;4277;51.354;6.740;2023-07-08T08:33:13;6.15;;;5.25;;
8480;SDS011;4277;51.354;6.740;2023-07-08T08:35:39;6.35;;;5.65;;
8480;SDS011;4277;51.354;6.740;2023-07-08T08:38:06;7.90;;;5.13;;
8480;SDS011;4277;51.354;6.740;2023-07-08T08:40:31;6.70;;;5.97;;
8480;SDS011;4277;51.354;6.740;2023-07-08T08:42:59;7.00;;;5.47;;
8480;SDS011;4277;51.354;6.740;2023-07-08T08:45:28;6.00;;;4.70;;
8480;SDS011;4277;51.354;6.740;2023-07-08T08:47:59;6.38;;;5.68;;
8480;SDS011;4277;51.354;6.740;2023-07-08T08:53:00;7.20;;;5.22;;
8480;SDS011;4277;51.354;6.740;2023-07-08T08:55:26;5.65;;;5.03;;
8480;SDS011;4277;51.354;6.740;2023-07-08T08:58:06;6.38;;;4.78;;
8480;SDS011;4277;51.354;6.740;2023-07-08T09:00:37;6.90;;;5.00;;
8480;SDS011;4277;51.354;6.740;2023-07-08T09:03:11;6.75;;;4.93;;
8480;SDS011;4277;51.354;6.740;2023-07-08T09:05:38;6.18;;;4.85;;
8480;SDS011;4277;51.354;6.740;2023-07-08T09:08:20;6.38;;;4.88;;
8480;SDS011;4277;51.354;6.740;2023-07-08T09:10:53;5.57;;;4.97;;
8480;SDS011;4277;51.354;6.740;2023-07-08T09:13:41;8.75;;;4.90;;
8480;SDS011;4277;51.354;6.740;2023-07-08T09:21:51;5.68;;;5.07;;
8480;SDS011;4277;51.354;6.740;2023-07-08T09:27:04;6.90;;;5.03;;
8480;SDS011;4277;51.354;6.740;2023-07-08T09:29:30;5.93;;;4.70;;
8480;SDS011;4277;51.354;6.740;2023-07-08T09:31:57;6.43;;;4.70;;
8480;SDS011;4277;51.354;6.740;2023-07-08T09:34:23;7.40;;;4.80;;
8480;SDS011;4277;51.354;6.740;2023-07-08T09:37:02;7.72;;;5.03;;
8480;SDS011;4277;51.354;6.740;2023-07-08T09:39:28;7.82;;;4.63;;
8480;SDS011;4277;51.354;6.740;2023-07-08T09:41:55;6.65;;;4.70;;
8480;SDS011;4277;51.354;6.740;2023-07-08T09:44:27;5.45;;;4.60;;
8480;SDS011;4277;51.354;6.740;2023-07-08T09:46:55;7.68;;;4.70;;
8480;SDS011;4277;51.354;6.740;2023-07-08T09:49:29;6.05;;;4.45;;
8480;SDS011;4277;51.354;6.740;2023-07-08T09:51:56;6.13;;;4.70;;
8480;SDS011;4277;51.354;6.740;2023-07-08T09:54:23;5.40;;;4.18;;
8480;SDS011;4277;51.354;6.740;2023-07-08T09:57:04;6.90;;;4.43;;
8480;SDS011;4277;51.354;6.740;2023-07-08T09:59:46;7.75;;;4.45;;
8480;SDS011;4277;51.354;6.740;2023-07-08T10:02:26;5.55;;;4.47;;
8480;SDS011;4277;51.354;6.740;2023-07-08T10:04:54;5.10;;;4.60;;
8480;SDS011;4277;51.354;6.740;2023-07-08T10:07:22;5.93;;;4.20;;
8480;SDS011;4277;51.354;6.740;2023-07-08T10:09:49;5.90;;;4.75;;
8480;SDS011;4277;51.354;6.740;2023-07-08T10:12:16;5.25;;;4.65;;
8480;SDS011;4277;51.354;6.740;2023-07-08T10:14:46;5.78;;;4.35;;
8480;SDS011;4277;51.354;6.740;2023-07-08T10:17:16;5.88;;;4.32;;
8480;SDS011;4277;51.354;6.740;2023-07-08T10:19:43;4.97;;;4.15;;
8480;SDS011;4277;51.354;6.740;2023-07-08T10:30:03;5.00;;;4.10;;
8480;SDS011;4277;51.354;6.740;2023-07-08T10:35:21;8.02;;;4.30;;
8480;SDS011;4277;51.354;6.740;2023-07-08T10:40:31;6.10;;;4.25;;
8480;SDS011;4277;51.354;6.740;2023-07-08T10:43:15;5.38;;;4.47;;
8480;SDS011;4277;51.354;6.740;2023-07-08T10:56:20;5.00;;;4.43;;
8480;SDS011;4277;51.354;6.740;2023-07-08T10:59:05;7.30;;;4.38;;
8480;SDS011;4277;51.354;6.740;2023-07-08T11:02:00;6.93;;;4.22;;
8480;SDS011;4277;51.354;6.740;2023-07-08T11:04:32;4.72;;;4.22;;
8480;SDS011;4277;51.354;6.740;2023-07-08T11:07:05;6.05;;;4.28;;
8480;SDS011;4277;51.354;6.740;2023-07-08T11:09:51;5.00;;;3.75;;
8480;SDS011;4277;51.354;6.740;2023-07-08T11:12:24;7.05;;;4.00;;
8480;SDS011;4277;51.354;6.740;2023-07-08T11:14:56;5.57;;;4.10;;
8480;SDS011;4277;51.354;6.740;2023-07-08T11:17:27;4.93;;;4.40;;
8480;SDS011;4277;51.354;6.740;2023-07-08T11:20:13;5.22;;;3.90;;
8480;SDS011;4277;51.354;6.740;2023-07-08T11:22:44;5.95;;;4.28;;
8480;SDS011;4277;51.354;6.740;2023-07-08T11:25:15;8.85;;;4.38;;
8480;SDS011;4277;51.354;6.740;2023-07-08T11:27:41;4.85;;;4.07;;
8480;SDS011;4277;51.354;6.740;2023-07-08T11:32:37;7.65;;;4.13;;
8480;SDS011;4277;51.354;6.740;2023-07-08T11:35:05;4.63;;;4.13;;
8480;SDS011;4277;51.354;6.740;2023-07-08T11:37:31;4.45;;;4.05;;
8480;SDS011;4277;51.354;6.740;2023-07-08T11:40:06;4.90;;;3.90;;
8480;SDS011;4277;51.354;6.740;2023-07-08T11:45:01;4.22;;;3.83;;
8480;SDS011;4277;51.354;6.740;2023-07-08T11:47:40;5.35;;;3.80;;
8480;SDS011;4277;51.354;6.740;2023-07-08T11:50:22;5.70;;;4.05;;
8480;SDS011;4277;51.354;6.740;2023-07-08T11:53:02;5.50;;;3.78;;
8480;SDS011;4277;51.354;6.740;2023-07-08T11:55:35;6.82;;;4.10;;
8480;SDS011;4277;51.354;6.740;2023-07-08T11:58:02;4.60;;;3.90;;
8480;SDS011;4277;51.354;6.740;2023-07-08T12:00:31;6.53;;;4.50;;
8480;SDS011;4277;51.354;6.740;2023-07-08T12:02:58;4.35;;;3.80;;
8480;SDS011;4277;51.354;6.740;2023-07-08T12:05:35;4.82;;;3.92;;
8480;SDS011;4277;51.354;6.740;2023-07-08T12:08:02;4.45;;;3.97;;
8480;SDS011;4277;51.354;6.740;2023-07-08T12:10:32;4.25;;;3.85;;
8480;SDS011;4277;51.354;6.740;2023-07-08T12:13:00;4.20;;;3.80;;
8480;SDS011;4277;51.354;6.740;2023-07-08T12:15:27;4.35;;;3.47;;
8480;SDS011;4277;51.354;6.740;2023-07-08T12:17:55;5.85;;;4.15;;
8480;SDS011;4277;51.354;6.740;2023-07-08T12:22:47;5.75;;;3.53;;
8480;SDS011;4277;51.354;6.740;2023-07-08T12:25:14;4.63;;;3.50;;
8480;SDS011;4277;51.354;6.740;2023-07-08T12:27:41;6.40;;;3.88;;
8480;SDS011;4277;51.354;6.740;2023-07-08T12:30:08;4.30;;;3.60;;
8480;SDS011;4277;51.354;6.740;2023-07-08T12:32:35;4.60;;;3.88;;
8480;SDS011;4277;51.354;6.740;2023-07-08T12:35:01;5.45;;;4.03;;
8480;SDS011;4277;51.354;6.740;2023-07-08T12:37:29;5.85;;;3.58;;
8480;SDS011;4277;51.354;6.740;2023-07-08T12:39:56;4.03;;;3.63;;
8480;SDS011;4277;51.354;6.740;2023-07-08T12:42:25;5.32;;;3.75;;
8480;SDS011;4277;51.354;6.740;2023-07-08T12:44:51;4.53;;;3.88;;
8480;SDS011;4277;51.354;6.740;2023-07-08T12:47:18;5.22;;;3.80;;
8480;SDS011;4277;51.354;6.740;2023-07-08T12:49:45;4.82;;;3.70;;
8480;SDS011;4277;51.354;6.740;2023-07-08T12:52:19;4.07;;;3.65;;
8480;SDS011;4277;51.354;6.740;2023-07-08T12:54:45;6.57;;;3.83;;
8480;SDS011;4277;51.354;6.740;2023-07-08T12:57:11;5.20;;;3.97;;
8480;SDS011;4277;51.354;6.740;2023-07-08T12:59:37;5.90;;;3.75;;
8480;SDS011;4277;51.354;6.740;2023-07-08T13:02:04;4.88;;;3.95;;
8480;SDS011;4277;51.354;6.740;2023-07-08T13:04:30;4.22;;;3.80;;
8480;SDS011;4277;51.354;6.740;2023-07-08T13:06:55;5.05;;;3.72;;
8480;SDS011;4277;51.354;6.740;2023-07-08T13:11:51;6.28;;;3.75;;
8480;SDS011;4277;51.354;6.740;2023-07-08T13:14:17;5.25;;;3.83;;
8480;SDS011;4277;51.354;6.740;2023-07-08T13:16:44;7.55;;;4.00;;
8480;SDS011;4277;51.354;6.740;2023-07-08T13:19:11;4.80;;;3.92;;
8480;SDS011;4277;51.354;6.740;2023-07-08T13:21:38;6.50;;;4.00;;
8480;SDS011;4277;51.354;6.740;2023-07-08T13:24:09;6.57;;;4.32;;
8480;SDS011;4277;51.354;6.740;2023-07-08T13:26:36;12.98;;;4.32;;
8480;SDS011;4277;51.354;6.740;2023-07-08T13:29:13;5.28;;;3.90;;
8480;SDS011;4277;51.354;6.740;2023-07-08T13:31:40;4.72;;;3.95;;
8480;SDS011;4277;51.354;6.740;2023-07-08T13:34:07;6.88;;;4.30;;
8480;SDS011;4277;51.354;6.740;2023-07-08T13:36:35;5.25;;;3.67;;
8480;SDS011;4277;51.354;6.740;2023-07-08T13:39:02;6.30;;;4.00;;
8480;SDS011;4277;51.354;6.740;2023-07-08T13:41:29;11.27;;;4.40;;
8480;SDS011;4277;51.354;6.740;2023-07-08T13:43:55;6.28;;;3.78;;
8480;SDS011;4277;51.354;6.740;2023-07-08T13:46:35;4.30;;;3.40;;
8480;SDS011;4277;51.354;6.740;2023-07-08T13:49:12;5.70;;;4.15;;
8480;SDS011;4277;51.354;6.740;2023-07-08T13:51:38;6.22;;;4.00;;
8480;SDS011;4277;51.354;6.740;2023-07-08T13:54:24;5.15;;;4.07;;
8480;SDS011;4277;51.354;6.740;2023-07-08T13:56:51;4.97;;;4.00;;
8480;SDS011;4277;51.354;6.740;2023-07-08T13:59:18;5.05;;;3.83;;
8480;SDS011;4277;51.354;6.740;2023-07-08T14:01:45;4.38;;;3.97;;
8480;SDS011;4277;51.354;6.740;2023-07-08T14:04:12;4.50;;;3.83;;
8480;SDS011;4277;51.354;6.740;2023-07-08T14:06:39;4.95;;;3.75;;
8480;SDS011;4277;51.354;6.740;2023-07-08T14:09:16;4.22;;;3.80;;
8480;SDS011;4277;51.354;6.740;2023-07-08T14:11:42;8.35;;;4.13;;
8480;SDS011;4277;51.354;6.740;2023-07-08T14:14:08;5.65;;;3.97;;
8480;SDS011;4277;51.354;6.740;2023-07-08T14:16:36;4.00;;;3.50;;
8480;SDS011;4277;51.354;6.740;2023-07-08T14:19:03;9.23;;;4.72;;
8480;SDS011;4277;51.354;6.740;2023-07-08T14:21:30;4.95;;;3.78;;
8480;SDS011;4277;51.354;6.740;2023-07-08T14:23:56;4.45;;;3.90;;
8480;SDS011;4277;51.354;6.740;2023-07-08T14:26:22;6.07;;;3.90;;
8480;SDS011;4277;51.354;6.740;2023-07-08T14:28:48;4.50;;;3.72;;
8480;SDS011;4277;51.354;6.740;2023-07-08T14:31:15;8.90;;;4.00;;
8480;SDS011;4277;51.354;6.740;2023-07-08T14:33:42;7.63;;;4.00;;
8480;SDS011;4277;51.354;6.740;2023-07-08T14:36:09;5.28;;;3.88;;
8480;SDS011;4277;51.354;6.740;2023-07-08T14:38:35;5.47;;;3.90;;
8480;SDS011;4277;51.354;6.740;2023-07-08T14:41:01;5.07;;;4.00;;
8480;SDS011;4277;51.354;6.740;2023-07-08T14:43:28;5.47;;;4.15;;
8480;SDS011;4277;51.354;6.740;2023-07-08T14:45:55;5.15;;;3.65;;
8480;SDS011;4277;51.354;6.740;2023-07-08T14:48:21;5.93;;;4.15;;
8480;SDS011;4277;51.354;6.740;2023-07-08T14:50:47;5.05;;;4.07;;
8480;SDS011;4277;51.354;6.740;2023-07-08T14:53:14;7.53;;;4.03;;
8480;SDS011;4277;51.354;6.740;2023-07-08T14:55:40;5.50;;;3.90;;
8480;SDS011;4277;51.354;6.740;2023-07-08T14:58:07;4.72;;;3.70;;
8480;SDS011;4277;51.354;6.740;2023-07-08T15:00:32;4.43;;;3.85;;
8480;SDS011;4277;51.354;6.740;2023-07-08T15:02:58;6.38;;;3.78;;
8480;SDS011;4277;51.354;6.740;2023-07-08T15:05:25;6.47;;;4.00;;
8480;SDS011;4277;51.354;6.740;2023-07-08T15:07:55;6.30;;;4.20;;
8480;SDS011;4277;51.354;6.740;2023-07-08T15:10:25;5.85;;;4.00;;
8480;SDS011;4277;51.354;6.740;2023-07-08T15:12:51;5.40;;;4.15;;
8480;SDS011;4277;51.354;6.740;2023-07-08T15:15:20;6.13;;;3.58;;
8480;SDS011;4277;51.354;6.740;2023-07-08T15:17:48;6.75;;;3.80;;
8480;SDS011;4277;51.354;6.740;2023-07-08T15:20:14;4.30;;;3.90;;
8480;SDS011;4277;51.354;6.740;2023-07-08T15:22:40;6.57;;;4.03;;
8480;SDS011;4277;51.354;6.740;2023-07-08T15:25:08;6.72;;;3.72;;
8480;SDS011;4277;51.354;6.740;2023-07-08T15:27:35;4.65;;;4.13;;
8480;SDS011;4277;51.354;6.740;2023-07-08T15:30:00;5.47;;;3.60;;
8480;SDS011;4277;51.354;6.740;2023-07-08T15:32:26;5.72;;;3.90;;
8480;SDS011;4277;51.354;6.740;2023-07-08T15:34:51;6.95;;;4.18;;
8480;SDS011;4277;51.354;6.740;2023-07-08T15:37:18;7.57;;;4.20;;
8480;SDS011;4277;51.354;6.740;2023-07-08T15:39:43;4.20;;;3.80;;
8480;SDS011;4277;51.354;6.740;2023-07-08T15:42:10;5.82;;;3.70;;
8480;SDS011;4277;51.354;6.740;2023-07-08T15:44:37;4.55;;;3.75;;
8480;SDS011;4277;51.354;6.740;2023-07-08T15:47:03;4.82;;;3.67;;
8480;SDS011;4277;51.354;6.740;2023-07-08T15:49:31;7.15;;;4.40;;
8480;SDS011;4277;51.354;6.740;2023-07-08T15:51:58;7.00;;;4.13;;
8480;SDS011;4277;51.354;6.740;2023-07-08T15:54:24;5.47;;;3.95;;
8480;SDS011;4277;51.354;6.740;2023-07-08T15:56:52;4.63;;;3.70;;
8480;SDS011;4277;51.354;6.740;2023-07-08T15:59:22;3.95;;;3.65;;
8480;SDS011;4277;51.354;6.740;2023-07-08T16:01:50;4.45;;;3.80;;
8480;SDS011;4277;51.354;6.740;2023-07-08T16:04:23;6.88;;;3.97;;
8480;SDS011;4277;51.354;6.740;2023-07-08T16:06:53;5.95;;;3.78;;
8480;SDS011;4277;51.354;6.740;2023-07-08T16:09:19;6.60;;;3.63;;